Nokomis, Illinois
Current Conditions -  °F | °C
As of 7:15 PM on Friday 21 Nov 2014 (Local Time) from KTAZ Reporting Station
Overcast Overcast  
Wind Chill: 25°   Ceiling: 3100
Heat Index: 34°   Visibility: 10mi
Dew Point: 19°   Wind: 12mph
Humidity: 56%   Direction: 150°SSE
Pressure: 30.29"   Gusts: NA
Location:  39.3°N, 89.29°W
Report Text: KTAZ 220115Z AUTO 15010KT 10SM BKN031 OVC040 01/M07 A3029 RMK AO2
Loading
Personal Weather Stations






























Interactive Weather Map New forecast layout! Learn more

10-Day Weather Forecast

Advertisements
Track Severe Weather on mobile